sensor_id;sensor_type;location;lat;lon;timestamp;temperature;humidity
60495;DHT22;46342;49.046;11.920;2022-07-05T05:22:27;19.60;49.10
60495;DHT22;46342;49.046;11.920;2022-07-05T05:24:52;19.60;49.30
60495;DHT22;46342;49.046;11.920;2022-07-05T05:27:18;19.60;48.40
60495;DHT22;46342;49.046;11.920;2022-07-05T05:29:43;19.60;48.60
60495;DHT22;46342;49.046;11.920;2022-07-05T05:32:09;19.60;48.70
60495;DHT22;46342;49.046;11.920;2022-07-05T05:34:34;19.70;49.00
60495;DHT22;46342;49.046;11.920;2022-07-05T05:37:00;19.70;49.10
60495;DHT22;46342;49.046;11.920;2022-07-05T05:39:26;19.70;49.20
60495;DHT22;46342;49.046;11.920;2022-07-05T05:41:51;19.80;49.40
60495;DHT22;46342;49.046;11.920;2022-07-05T05:44:17;19.80;49.40
60495;DHT22;46342;49.046;11.920;2022-07-05T05:46:42;19.90;49.50
60495;DHT22;46342;49.046;11.920;2022-07-05T05:49:08;20.00;49.60
60495;DHT22;46342;49.046;11.920;2022-07-05T05:51:33;20.00;49.70
60495;DHT22;46342;49.046;11.920;2022-07-05T05:53:59;20.00;49.60
60495;DHT22;46342;49.046;11.920;2022-07-05T05:56:25;20.10;49.60
60495;DHT22;46342;49.046;11.920;2022-07-05T05:58:52;20.20;49.60
60495;DHT22;46342;49.046;11.920;2022-07-05T06:01:19;20.30;49.70
60495;DHT22;46342;49.046;11.920;2022-07-05T06:03:44;20.30;49.80
60495;DHT22;46342;49.046;11.920;2022-07-05T06:06:10;20.40;49.80
60495;DHT22;46342;49.046;11.920;2022-07-05T06:08:35;20.50;49.80
60495;DHT22;46342;49.046;11.920;2022-07-05T06:11:01;20.50;49.70
60495;DHT22;46342;49.046;11.920;2022-07-05T06:13:29;20.60;49.80
60495;DHT22;46342;49.046;11.920;2022-07-05T06:15:55;20.70;49.90
60495;DHT22;46342;49.046;11.920;2022-07-05T06:18:21;20.80;49.90
60495;DHT22;46342;49.046;11.920;2022-07-05T06:20:47;20.80;50.40
60495;DHT22;46342;49.046;11.920;2022-07-05T06:23:13;20.90;49.80
60495;DHT22;46342;49.046;11.920;2022-07-05T06:25:38;21.00;49.90
60495;DHT22;46342;49.046;11.920;2022-07-05T06:28:07;21.00;49.90
60495;DHT22;46342;49.046;11.920;2022-07-05T06:30:36;21.10;50.00
60495;DHT22;46342;49.046;11.920;2022-07-05T06:33:04;21.20;50.20
60495;DHT22;46342;49.046;11.920;2022-07-05T06:35:36;21.20;50.00
60495;DHT22;46342;49.046;11.920;2022-07-05T06:38:09;21.40;50.50
60495;DHT22;46342;49.046;11.920;2022-07-05T06:40:39;21.40;50.50
60495;DHT22;46342;49.046;11.920;2022-07-05T06:43:08;21.50;50.30
60495;DHT22;46342;49.046;11.920;2022-07-05T06:45:36;21.50;50.20
60495;DHT22;46342;49.046;11.920;2022-07-05T06:48:07;21.60;50.30
60495;DHT22;46342;49.046;11.920;2022-07-05T06:50:35;21.70;50.60
60495;DHT22;46342;49.046;11.920;2022-07-05T06:53:01;21.70;50.40
60495;DHT22;46342;49.046;11.920;2022-07-05T06:55:27;21.90;50.60
60495;DHT22;46342;49.046;11.920;2022-07-05T06:58:07;21.90;50.10
60495;DHT22;46342;49.046;11.920;2022-07-05T07:00:35;22.00;50.60
60495;DHT22;46342;49.046;11.920;2022-07-05T07:03:01;22.00;50.30
60495;DHT22;46342;49.046;11.920;2022-07-05T07:05:27;22.10;50.40
60495;DHT22;46342;49.046;11.920;2022-07-05T07:07:53;22.20;50.50
60495;DHT22;46342;49.046;11.920;2022-07-05T07:10:37;22.20;50.40
60495;DHT22;46342;49.046;11.920;2022-07-05T07:13:04;22.30;50.30
60495;DHT22;46342;49.046;11.920;2022-07-05T07:15:30;22.40;50.50
60495;DHT22;46342;49.046;11.920;2022-07-05T07:17:56;22.50;50.30
60495;DHT22;46342;49.046;11.920;2022-07-05T07:20:22;22.50;50.10
60495;DHT22;46342;49.046;11.920;2022-07-05T07:22:47;22.60;50.00
60495;DHT22;46342;49.046;11.920;2022-07-05T07:25:13;22.70;50.00
60495;DHT22;46342;49.046;11.920;2022-07-05T07:27:43;22.80;49.90
60495;DHT22;46342;49.046;11.920;2022-07-05T07:30:13;22.80;50.00
60495;DHT22;46342;49.046;11.920;2022-07-05T07:32:40;22.90;50.00
60495;DHT22;46342;49.046;11.920;2022-07-05T07:35:09;22.90;49.90
60495;DHT22;46342;49.046;11.920;2022-07-05T07:37:35;23.00;50.00
60495;DHT22;46342;49.046;11.920;2022-07-05T07:40:01;23.10;49.90
60495;DHT22;46342;49.046;11.920;2022-07-05T07:42:28;23.10;49.80
60495;DHT22;46342;49.046;11.920;2022-07-05T07:44:54;23.20;49.80
60495;DHT22;46342;49.046;11.920;2022-07-05T07:47:19;23.30;49.80
60495;DHT22;46342;49.046;11.920;2022-07-05T07:49:45;23.30;49.70
60495;DHT22;46342;49.046;11.920;2022-07-05T07:52:11;23.40;49.70
60495;DHT22;46342;49.046;11.920;2022-07-05T07:54:37;23.50;49.60
60495;DHT22;46342;49.046;11.920;2022-07-05T07:57:02;23.60;49.50
60495;DHT22;46342;49.046;11.920;2022-07-05T07:59:30;23.70;49.40
60495;DHT22;46342;49.046;11.920;2022-07-05T08:01:56;23.80;49.40
60495;DHT22;46342;49.046;11.920;2022-07-05T08:04:22;23.80;49.10
60495;DHT22;46342;49.046;11.920;2022-07-05T08:06:47;23.90;49.10
60495;DHT22;46342;49.046;11.920;2022-07-05T08:09:13;23.90;49.00
60495;DHT22;46342;49.046;11.920;2022-07-05T08:11:40;24.00;49.00
60495;DHT22;46342;49.046;11.920;2022-07-05T08:14:06;24.10;49.10
60495;DHT22;46342;49.046;11.920;2022-07-05T08:16:32;24.10;49.00
60495;DHT22;46342;49.046;11.920;2022-07-05T11:45:34;30.80;33.70
60495;DHT22;46342;49.046;11.920;2022-07-05T11:48:01;30.80;35.10
60495;DHT22;46342;49.046;11.920;2022-07-05T11:50:31;30.90;34.40
60495;DHT22;46342;49.046;11.920;2022-07-05T11:53:01;31.00;33.70
60495;DHT22;46342;49.046;11.920;2022-07-05T11:55:28;31.00;33.80
60495;DHT22;46342;49.046;11.920;2022-07-05T11:57:55;31.00;33.60
60495;DHT22;46342;49.046;11.920;2022-07-05T12:00:31;31.10;33.10
60495;DHT22;46342;49.046;11.920;2022-07-05T12:02:57;31.20;33.60
60495;DHT22;46342;49.046;11.920;2022-07-05T12:05:28;31.20;33.30
60495;DHT22;46342;49.046;11.920;2022-07-05T12:07:53;31.20;33.10
60495;DHT22;46342;49.046;11.920;2022-07-05T12:10:20;31.20;32.90
60495;DHT22;46342;49.046;11.920;2022-07-05T12:13:08;31.30;33.00
60495;DHT22;46342;49.046;11.920;2022-07-05T12:15:37;31.30;32.40
60495;DHT22;46342;49.046;11.920;2022-07-05T12:18:04;31.40;32.60
60495;DHT22;46342;49.046;11.920;2022-07-05T12:20:35;31.40;32.70
60495;DHT22;46342;49.046;11.920;2022-07-05T12:23:02;31.50;31.60
60495;DHT22;46342;49.046;11.920;2022-07-05T12:25:30;31.50;32.10
60495;DHT22;46342;49.046;11.920;2022-07-05T12:27:57;31.50;31.90
60495;DHT22;46342;49.046;11.920;2022-07-05T12:30:24;31.60;32.00
60495;DHT22;46342;49.046;11.920;2022-07-05T12:33:06;31.60;31.80
60495;DHT22;46342;49.046;11.920;2022-07-05T12:35:43;31.70;31.60
60495;DHT22;46342;49.046;11.920;2022-07-05T12:38:10;31.80;30.30
60495;DHT22;46342;49.046;11.920;2022-07-05T12:40:38;31.80;31.40
60495;DHT22;46342;49.046;11.920;2022-07-05T12:43:13;31.90;31.40
60495;DHT22;46342;49.046;11.920;2022-07-05T12:45:41;31.90;31.00
60495;DHT22;46342;49.046;11.920;2022-07-05T12:48:08;31.90;31.30
60495;DHT22;46342;49.046;11.920;2022-07-05T12:51:04;31.90;31.00
60495;DHT22;46342;49.046;11.920;2022-07-05T12:53:30;31.90;30.30
60495;DHT22;46342;49.046;11.920;2022-07-05T12:56:15;31.80;31.70
60495;DHT22;46342;49.046;11.920;2022-07-05T12:59:03;31.90;30.60
60495;DHT22;46342;49.046;11.920;2022-07-05T13:01:43;31.90;30.20
60495;DHT22;46342;49.046;11.920;2022-07-05T13:04:13;31.90;29.50
60495;DHT22;46342;49.046;11.920;2022-07-05T13:06:52;31.80;29.90
60495;DHT22;46342;49.046;11.920;2022-07-05T13:12:10;31.80;29.60
60495;DHT22;46342;49.046;11.920;2022-07-05T13:14:48;31.80;29.60
60495;DHT22;46342;49.046;11.920;2022-07-05T13:17:16;31.80;30.20
60495;DHT22;46342;49.046;11.920;2022-07-05T13:19:43;31.80;30.50
60495;DHT22;46342;49.046;11.920;2022-07-05T13:22:10;31.90;30.60
60495;DHT22;46342;49.046;11.920;2022-07-05T13:24:37;31.90;30.50
60495;DHT22;46342;49.046;11.920;2022-07-05T13:27:03;32.00;30.40
60495;DHT22;46342;49.046;11.920;2022-07-05T13:29:30;32.00;30.30
60495;DHT22;46342;49.046;11.920;2022-07-05T13:31:55;32.10;30.40
60495;DHT22;46342;49.046;11.920;2022-07-05T13:34:27;32.20;30.00
60495;DHT22;46342;49.046;11.920;2022-07-05T13:36:55;32.30;30.00
60495;DHT22;46342;49.046;11.920;2022-07-05T13:39:21;32.30;29.90
60495;DHT22;46342;49.046;11.920;2022-07-05T13:41:48;32.40;30.00
60495;DHT22;46342;49.046;11.920;2022-07-05T13:44:13;32.40;30.00
60495;DHT22;46342;49.046;11.920;2022-07-05T13:46:39;32.50;29.90
60495;DHT22;46342;49.046;11.920;2022-07-05T13:49:05;32.60;29.80
60495;DHT22;46342;49.046;11.920;2022-07-05T13:51:30;32.60;29.60
60495;DHT22;46342;49.046;11.920;2022-07-05T13:53:56;32.60;29.30
60495;DHT22;46342;49.046;11.920;2022-07-05T13:56:22;32.60;29.20
60495;DHT22;46342;49.046;11.920;2022-07-05T13:58:49;32.60;29.10
60495;DHT22;46342;49.046;11.920;2022-07-05T14:01:14;32.60;29.00
60495;DHT22;46342;49.046;11.920;2022-07-05T14:03:40;32.60;29.00
60495;DHT22;46342;49.046;11.920;2022-07-05T14:06:06;32.60;29.00
60495;DHT22;46342;49.046;11.920;2022-07-05T14:08:31;32.70;28.90
60495;DHT22;46342;49.046;11.920;2022-07-05T14:10:57;32.70;29.10
60495;DHT22;46342;49.046;11.920;2022-07-05T14:13:26;32.70;28.90
60495;DHT22;46342;49.046;11.920;2022-07-05T14:15:52;32.80;28.80
60495;DHT22;46342;49.046;11.920;2022-07-05T14:18:19;32.80;28.80
60495;DHT22;46342;49.046;11.920;2022-07-05T14:20:45;32.90;28.70
60495;DHT22;46342;49.046;11.920;2022-07-05T14:23:12;32.90;28.80
60495;DHT22;46342;49.046;11.920;2022-07-05T14:25:39;32.90;28.80
60495;DHT22;46342;49.046;11.920;2022-07-05T14:28:05;33.00;28.70
60495;DHT22;46342;49.046;11.920;2022-07-05T14:30:36;33.10;28.80
60495;DHT22;46342;49.046;11.920;2022-07-05T14:33:03;33.20;28.40
60495;DHT22;46342;49.046;11.920;2022-07-05T14:35:29;33.30;28.60
60495;DHT22;46342;49.046;11.920;2022-07-05T14:37:58;33.30;28.50
60495;DHT22;46342;49.046;11.920;2022-07-05T14:40:24;33.40;28.40
60495;DHT22;46342;49.046;11.920;2022-07-05T14:42:54;33.50;28.30
60495;DHT22;46342;49.046;11.920;2022-07-05T14:45:20;33.50;28.20
60495;DHT22;46342;49.046;11.920;2022-07-05T14:47:46;33.60;28.30
60495;DHT22;46342;49.046;11.920;2022-07-05T14:50:13;33.60;28.10
60495;DHT22;46342;49.046;11.920;2022-07-05T14:52:39;33.60;27.90
60495;DHT22;46342;49.046;11.920;2022-07-05T14:55:05;33.60;27.80
60495;DHT22;46342;49.046;11.920;2022-07-05T14:57:31;33.60;27.80
60495;DHT22;46342;49.046;11.920;2022-07-05T14:59:57;33.60;27.70
60495;DHT22;46342;49.046;11.920;2022-07-05T15:02:22;33.60;27.70
60495;DHT22;46342;49.046;11.920;2022-07-05T15:04:48;33.60;27.60
60495;DHT22;46342;49.046;11.920;2022-07-05T15:07:14;33.50;27.40
60495;DHT22;46342;49.046;11.920;2022-07-05T15:09:40;33.50;27.40
60495;DHT22;46342;49.046;11.920;2022-07-05T15:12:06;33.50;27.40
60495;DHT22;46342;49.046;11.920;2022-07-05T15:14:31;33.40;27.30
60495;DHT22;46342;49.046;11.920;2022-07-05T15:16:57;33.40;27.40
60495;DHT22;46342;49.046;11.920;2022-07-05T15:19:23;33.30;27.30
60495;DHT22;46342;49.046;11.920;2022-07-05T15:21:49;33.20;27.20
60495;DHT22;46342;49.046;11.920;2022-07-05T15:24:15;33.20;27.40
60495;DHT22;46342;49.046;11.920;2022-07-05T15:26:42;33.10;27.60
60495;DHT22;46342;49.046;11.920;2022-07-05T15:29:08;33.30;27.90
60495;DHT22;46342;49.046;11.920;2022-07-05T15:31:36;33.20;27.80
60495;DHT22;46342;49.046;11.920;2022-07-05T15:34:03;33.20;27.40
60495;DHT22;46342;49.046;11.920;2022-07-05T15:36:30;33.20;27.30
60495;DHT22;46342;49.046;11.920;2022-07-05T15:39:00;33.10;27.30
60495;DHT22;46342;49.046;11.920;2022-07-05T15:41:27;33.10;27.30
60495;DHT22;46342;49.046;11.920;2022-07-05T15:43:53;33.00;27.50
60495;DHT22;46342;49.046;11.920;2022-07-05T15:46:18;33.00;27.70
60495;DHT22;46342;49.046;11.920;2022-07-05T15:48:44;32.90;27.60
60495;DHT22;46342;49.046;11.920;2022-07-05T15:51:09;32.90;27.70
60495;DHT22;46342;49.046;11.920;2022-07-05T15:53:36;32.90;27.70
60495;DHT22;46342;49.046;11.920;2022-07-05T15:56:02;32.90;27.70
60495;DHT22;46342;49.046;11.920;2022-07-05T15:58:32;32.90;27.50
60495;DHT22;46342;49.046;11.920;2022-07-05T16:00:59;32.90;27.60
60495;DHT22;46342;49.046;11.920;2022-07-05T16:03:25;32.80;27.70
60495;DHT22;46342;49.046;11.920;2022-07-05T16:05:52;32.90;27.80
60495;DHT22;46342;49.046;11.920;2022-07-05T16:08:19;32.70;27.80
60495;DHT22;46342;49.046;11.920;2022-07-05T16:10:44;32.60;27.60
60495;DHT22;46342;49.046;11.920;2022-07-05T16:13:10;32.60;27.80
60495;DHT22;46342;49.046;11.920;2022-07-05T16:15:41;32.60;27.90
60495;DHT22;46342;49.046;11.920;2022-07-05T16:18:25;32.60;27.90
60495;DHT22;46342;49.046;11.920;2022-07-05T16:20:51;32.60;27.90
60495;DHT22;46342;49.046;11.920;2022-07-05T16:23:17;32.70;27.90
60495;DHT22;46342;49.046;11.920;2022-07-05T16:25:42;32.70;27.70
60495;DHT22;46342;49.046;11.920;2022-07-05T16:28:08;32.70;27.70
60495;DHT22;46342;49.046;11.920;2022-07-05T16:30:33;32.70;27.90
60495;DHT22;46342;49.046;11.920;2022-07-05T16:32:59;32.70;27.90
60495;DHT22;46342;49.046;11.920;2022-07-05T16:35:24;32.80;27.90
60495;DHT22;46342;49.046;11.920;2022-07-05T16:37:50;32.80;27.90
60495;DHT22;46342;49.046;11.920;2022-07-05T16:40:16;32.80;27.80
60495;DHT22;46342;49.046;11.920;2022-07-05T16:42:41;32.80;27.50
60495;DHT22;46342;49.046;11.920;2022-07-05T16:45:07;32.70;27.50
60495;DHT22;46342;49.046;11.920;2022-07-05T16:47:37;32.60;27.40
60495;DHT22;46342;49.046;11.920;2022-07-05T16:50:03;32.60;27.60
60495;DHT22;46342;49.046;11.920;2022-07-05T16:52:29;32.50;27.70
60495;DHT22;46342;49.046;11.920;2022-07-05T16:54:55;32.50;27.80
60495;DHT22;46342;49.046;11.920;2022-07-05T16:57:20;32.40;27.90
60495;DHT22;46342;49.046;11.920;2022-07-05T16:59:46;32.50;27.90
60495;DHT22;46342;49.046;11.920;2022-07-05T17:02:12;32.40;28.00
60495;DHT22;46342;49.046;11.920;2022-07-05T17:04:37;32.40;27.90
60495;DHT22;46342;49.046;11.920;2022-07-05T17:07:03;32.40;28.00
60495;DHT22;46342;49.046;11.920;2022-07-05T17:09:29;32.30;27.90
60495;DHT22;46342;49.046;11.920;2022-07-05T17:11:54;32.30;27.80
60495;DHT22;46342;49.046;11.920;2022-07-05T17:14:20;32.20;27.80
60495;DHT22;46342;49.046;11.920;2022-07-05T17:16:49;32.20;27.80
60495;DHT22;46342;49.046;11.920;2022-07-05T17:19:14;32.10;28.00
60495;DHT22;46342;49.046;11.920;2022-07-05T17:21:40;32.00;28.10
60495;DHT22;46342;49.046;11.920;2022-07-05T17:24:06;31.90;28.00
60495;DHT22;46342;49.046;11.920;2022-07-05T17:26:32;31.80;28.10
60495;DHT22;46342;49.046;11.920;2022-07-05T17:28:57;31.70;28.20
60495;DHT22;46342;49.046;11.920;2022-07-05T17:31:23;31.50;28.40
60495;DHT22;46342;49.046;11.920;2022-07-05T17:33:50;31.50;28.40
60495;DHT22;46342;49.046;11.920;2022-07-05T17:36:17;31.30;28.20
60495;DHT22;46342;49.046;11.920;2022-07-05T17:38:44;31.20;28.20
60495;DHT22;46342;49.046;11.920;2022-07-05T17:41:10;31.10;28.30
60495;DHT22;46342;49.046;11.920;2022-07-05T17:43:42;31.20;28.50
60495;DHT22;46342;49.046;11.920;2022-07-05T17:46:19;31.00;28.60
60495;DHT22;46342;49.046;11.920;2022-07-05T17:48:45;30.90;28.80
60495;DHT22;46342;49.046;11.920;2022-07-05T17:51:11;30.80;28.80
60495;DHT22;46342;49.046;11.920;2022-07-05T17:53:37;30.70;28.70
60495;DHT22;46342;49.046;11.920;2022-07-05T17:56:04;30.60;28.60
60495;DHT22;46342;49.046;11.920;2022-07-05T17:58:29;30.50;28.60
60495;DHT22;46342;49.046;11.920;2022-07-05T18:00:55;30.50;28.60
60495;DHT22;46342;49.046;11.920;2022-07-05T18:03:22;30.40;28.60
60495;DHT22;46342;49.046;11.920;2022-07-05T18:12:32;30.20;28.50
60495;DHT22;46342;49.046;11.920;2022-07-05T18:14:58;30.00;28.70
60495;DHT22;46342;49.046;11.920;2022-07-05T18:17:23;29.90;28.80
60495;DHT22;46342;49.046;11.920;2022-07-05T18:19:49;29.90;28.80
60495;DHT22;46342;49.046;11.920;2022-07-05T18:22:14;29.80;28.80
60495;DHT22;46342;49.046;11.920;2022-07-05T18:24:40;29.70;28.90
60495;DHT22;46342;49.046;11.920;2022-07-05T18:27:06;29.70;29.00
60495;DHT22;46342;49.046;11.920;2022-07-05T18:29:31;29.60;29.10
60495;DHT22;46342;49.046;11.920;2022-07-05T18:31:58;29.50;29.10
60495;DHT22;46342;49.046;11.920;2022-07-05T18:34:24;29.40;29.10
60495;DHT22;46342;49.046;11.920;2022-07-05T18:36:49;29.40;29.40
60495;DHT22;46342;49.046;11.920;2022-07-05T18:39:15;29.30;29.50
60495;DHT22;46342;49.046;11.920;2022-07-05T18:41:40;29.20;29.60
60495;DHT22;46342;49.046;11.920;2022-07-05T18:44:06;29.10;29.80
60495;DHT22;46342;49.046;11.920;2022-07-05T18:46:32;29.00;29.80
60495;DHT22;46342;49.046;11.920;2022-07-05T18:48:57;28.90;30.00
60495;DHT22;46342;49.046;11.920;2022-07-05T18:51:26;28.80;30.00
60495;DHT22;46342;49.046;11.920;2022-07-05T18:53:52;28.70;30.10
60495;DHT22;46342;49.046;11.920;2022-07-05T18:56:18;28.60;30.30
60495;DHT22;46342;49.046;11.920;2022-07-05T18:58:43;28.50;30.40
60495;DHT22;46342;49.046;11.920;2022-07-05T19:01:10;28.40;30.70
60495;DHT22;46342;49.046;11.920;2022-07-05T19:03:36;28.30;31.20
60495;DHT22;46342;49.046;11.920;2022-07-05T19:06:02;28.20;30.70
60495;DHT22;46342;49.046;11.920;2022-07-05T19:09:19;28.10;31.30
60495;DHT22;46342;49.046;11.920;2022-07-05T19:12:03;28.00;31.30
60495;DHT22;46342;49.046;11.920;2022-07-05T19:14:47;27.80;30.90
60495;DHT22;46342;49.046;11.920;2022-07-05T19:17:15;27.60;31.00
60495;DHT22;46342;49.046;11.920;2022-07-05T19:19:41;27.50;31.00
60495;DHT22;46342;49.046;11.920;2022-07-05T19:22:07;27.40;31.10
60495;DHT22;46342;49.046;11.920;2022-07-05T19:24:37;27.20;31.30
60495;DHT22;46342;49.046;11.920;2022-07-05T19:27:03;27.10;31.50
60495;DHT22;46342;49.046;11.920;2022-07-05T19:29:31;27.00;31.60
60495;DHT22;46342;49.046;11.920;2022-07-05T19:31:57;26.90;31.70
60495;DHT22;46342;49.046;11.920;2022-07-05T19:34:24;26.80;31.70
60495;DHT22;46342;49.046;11.920;2022-07-05T19:36:50;26.60;31.70
60495;DHT22;46342;49.046;11.920;2022-07-05T19:39:16;26.50;31.90
60495;DHT22;46342;49.046;11.920;2022-07-05T19:41:44;26.40;32.10
60495;DHT22;46342;49.046;11.920;2022-07-05T19:44:10;26.30;32.10
60495;DHT22;46342;49.046;11.920;2022-07-05T19:46:47;26.20;32.30
60495;DHT22;46342;49.046;11.920;2022-07-05T19:49:18;26.10;32.40
60495;DHT22;46342;49.046;11.920;2022-07-05T19:51:55;26.00;32.50
60495;DHT22;46342;49.046;11.920;2022-07-05T19:54:27;25.90;32.90
60495;DHT22;46342;49.046;11.920;2022-07-05T19:56:52;25.80;32.80
60495;DHT22;46342;49.046;11.920;2022-07-05T19:59:18;25.70;32.70
60495;DHT22;46342;49.046;11.920;2022-07-05T20:01:46;25.60;32.80
60495;DHT22;46342;49.046;11.920;2022-07-05T20:04:18;25.50;32.80
60495;DHT22;46342;49.046;11.920;2022-07-05T20:06:49;25.40;33.10
60495;DHT22;46342;49.046;11.920;2022-07-05T20:09:25;25.30;33.00
60495;DHT22;46342;49.046;11.920;2022-07-05T20:12:01;25.20;33.40
60495;DHT22;46342;49.046;11.920;2022-07-05T20:14:27;25.10;33.10
60495;DHT22;46342;49.046;11.920;2022-07-05T20:16:54;25.00;33.30
60495;DHT22;46342;49.046;11.920;2022-07-05T20:19:26;24.90;33.30
60495;DHT22;46342;49.046;11.920;2022-07-05T20:21:58;24.80;33.60
60495;DHT22;46342;49.046;11.920;2022-07-05T20:24:24;24.70;33.70
60495;DHT22;46342;49.046;11.920;2022-07-05T20:26:49;24.60;33.50
60495;DHT22;46342;49.046;11.920;2022-07-05T20:29:15;24.50;33.70
60495;DHT22;46342;49.046;11.920;2022-07-05T20:31:41;24.40;33.80
60495;DHT22;46342;49.046;11.920;2022-07-05T20:34:07;24.30;33.90
60495;DHT22;46342;49.046;11.920;2022-07-05T20:36:34;24.20;34.00
60495;DHT22;46342;49.046;11.920;2022-07-05T20:39:00;24.20;34.20
60495;DHT22;46342;49.046;11.920;2022-07-05T20:41:26;24.10;34.20
60495;DHT22;46342;49.046;11.920;2022-07-05T20:43:52;24.00;34.30
60495;DHT22;46342;49.046;11.920;2022-07-05T20:46:18;23.90;34.40
60495;DHT22;46342;49.046;11.920;2022-07-05T20:48:46;23.80;34.50
60495;DHT22;46342;49.046;11.920;2022-07-05T20:51:12;23.80;34.60
60495;DHT22;46342;49.046;11.920;2022-07-05T20:53:38;23.70;34.70
60495;DHT22;46342;49.046;11.920;2022-07-05T20:56:04;23.60;34.80
60495;DHT22;46342;49.046;11.920;2022-07-05T20:58:30;23.60;34.90
60495;DHT22;46342;49.046;11.920;2022-07-05T21:00:56;23.50;35.00
60495;DHT22;46342;49.046;11.920;2022-07-05T21:03:21;23.40;35.10
60495;DHT22;46342;49.046;11.920;2022-07-05T21:05:47;23.30;35.20
60495;DHT22;46342;49.046;11.920;2022-07-05T21:08:13;23.30;35.30
60495;DHT22;46342;49.046;11.920;2022-07-05T21:10:39;23.20;35.40
60495;DHT22;46342;49.046;11.920;2022-07-05T21:13:04;23.10;35.50
60495;DHT22;46342;49.046;11.920;2022-07-05T21:15:30;23.00;35.50
60495;DHT22;46342;49.046;11.920;2022-07-05T21:17:56;23.00;35.60
60495;DHT22;46342;49.046;11.920;2022-07-05T21:20:21;22.90;35.60
60495;DHT22;46342;49.046;11.920;2022-07-05T21:22:47;22.80;36.30
60495;DHT22;46342;49.046;11.920;2022-07-05T21:25:13;22.80;35.80
60495;DHT22;46342;49.046;11.920;2022-07-05T21:27:41;22.70;35.80
60495;DHT22;46342;49.046;11.920;2022-07-05T21:30:10;22.60;36.00
60495;DHT22;46342;49.046;11.920;2022-07-05T21:32:36;22.60;35.90
60495;DHT22;46342;49.046;11.920;2022-07-05T21:35:02;22.50;35.90
60495;DHT22;46342;49.046;11.920;2022-07-05T21:37:34;22.40;36.00
60495;DHT22;46342;49.046;11.920;2022-07-05T21:40:09;22.40;36.70
60495;DHT22;46342;49.046;11.920;2022-07-05T21:42:45;22.30;36.50
60495;DHT22;46342;49.046;11.920;2022-07-05T21:45:16;22.30;36.70
60495;DHT22;46342;49.046;11.920;2022-07-05T21:47:42;22.20;36.60
60495;DHT22;46342;49.046;11.920;2022-07-05T21:50:08;22.10;36.50
60495;DHT22;46342;49.046;11.920;2022-07-05T21:52:37;22.10;36.60
60495;DHT22;46342;49.046;11.920;2022-07-05T21:55:09;22.00;36.60
60495;DHT22;46342;49.046;11.920;2022-07-05T21:57:48;21.90;37.10
60495;DHT22;46342;49.046;11.920;2022-07-05T22:00:24;21.90;37.20
60495;DHT22;46342;49.046;11.920;2022-07-05T22:03:09;21.80;37.00
60495;DHT22;46342;49.046;11.920;2022-07-05T22:05:56;21.70;36.90
60495;DHT22;46342;49.046;11.920;2022-07-05T22:08:22;21.60;37.00
60495;DHT22;46342;49.046;11.920;2022-07-05T22:10:51;21.60;37.10
60495;DHT22;46342;49.046;11.920;2022-07-05T22:13:37;21.50;37.10
60495;DHT22;46342;49.046;11.920;2022-07-05T22:16:03;21.50;37.20
60495;DHT22;46342;49.046;11.920;2022-07-05T22:18:31;21.40;37.30
60495;DHT22;46342;49.046;11.920;2022-07-05T22:20:57;21.40;37.60
60495;DHT22;46342;49.046;11.920;2022-07-05T22:23:30;21.30;37.40
60495;DHT22;46342;49.046;11.920;2022-07-05T22:25:56;21.20;37.40
60495;DHT22;46342;49.046;11.920;2022-07-05T22:28:22;21.20;37.50
60495;DHT22;46342;49.046;11.920;2022-07-05T22:30:48;21.10;37.50
60495;DHT22;46342;49.046;11.920;2022-07-05T22:33:13;21.10;37.60
60495;DHT22;46342;49.046;11.920;2022-07-05T22:35:39;21.00;37.70
60495;DHT22;46342;49.046;11.920;2022-07-05T22:38:07;21.00;37.90
60495;DHT22;46342;49.046;11.920;2022-07-05T22:40:38;21.00;37.90
60495;DHT22;46342;49.046;11.920;2022-07-05T22:43:07;20.90;38.10
60495;DHT22;46342;49.046;11.920;2022-07-05T22:45:35;20.90;38.20
60495;DHT22;46342;49.046;11.920;2022-07-05T22:48:01;20.80;38.30
60495;DHT22;46342;49.046;11.920;2022-07-05T22:50:27;20.80;38.10
60495;DHT22;46342;49.046;11.920;2022-07-05T22:52:58;20.70;38.10
60495;DHT22;46342;49.046;11.920;2022-07-05T22:55:36;20.70;38.60
60495;DHT22;46342;49.046;11.920;2022-07-05T22:58:33;20.60;38.20
60495;DHT22;46342;49.046;11.920;2022-07-05T23:00:59;20.60;38.50
60495;DHT22;46342;49.046;11.920;2022-07-05T23:03:30;20.50;38.30
60495;DHT22;46342;49.046;11.920;2022-07-05T23:05:56;20.50;38.40
60495;DHT22;46342;49.046;11.920;2022-07-05T23:08:22;20.40;38.40
60495;DHT22;46342;49.046;11.920;2022-07-05T23:10:50;20.40;38.60
60495;DHT22;46342;49.046;11.920;2022-07-05T23:13:19;20.30;38.90
60495;DHT22;46342;49.046;11.920;2022-07-05T23:15:48;20.30;38.70
60495;DHT22;46342;49.046;11.920;2022-07-05T23:18:16;20.20;38.70
60495;DHT22;46342;49.046;11.920;2022-07-05T23:20:44;20.20;38.80
60495;DHT22;46342;49.046;11.920;2022-07-05T23:23:13;20.10;38.80
60495;DHT22;46342;49.046;11.920;2022-07-05T23:28:39;20.10;39.80
60495;DHT22;46342;49.046;11.920;2022-07-05T23:31:35;20.00;39.10
60495;DHT22;46342;49.046;11.920;2022-07-05T23:34:01;20.00;39.70
60495;DHT22;46342;49.046;11.920;2022-07-05T23:36:26;19.90;39.20
60495;DHT22;46342;49.046;11.920;2022-07-05T23:38:52;19.80;39.30
60495;DHT22;46342;49.046;11.920;2022-07-05T23:41:29;19.80;39.30
60495;DHT22;46342;49.046;11.920;2022-07-05T23:44:14;19.80;40.20
60495;DHT22;46342;49.046;11.920;2022-07-05T23:47:04;19.70;39.60
60495;DHT22;46342;49.046;11.920;2022-07-05T23:49:30;19.70;39.80
60495;DHT22;46342;49.046;11.920;2022-07-05T23:51:56;19.60;39.40
60495;DHT22;46342;49.046;11.920;2022-07-05T23:54:31;19.60;39.60
60495;DHT22;46342;49.046;11.920;2022-07-05T23:57:27;19.50;39.60
60495;DHT22;46342;49.046;11.920;2022-07-05T23:59:55;19.50;39.70
